Time;durP1;ratioP1;P1;durP2;ratioP2;P2;SDS_P1;SDS_P2;PMS_P1;PMS_P2;Temp;Humidity;BMP_temperature;BMP_pressure;BME280_temperature;BME280_humidity;BME280_pressure;Samples;Min_cycle;Max_cycle;Signal;HPM_P1;HPM_P2
2021/10/24 00:00:51;;;;;;;21.80;13.85;;;;;;;7.78;98.26;102792.34;5075248;28;20461;-58
2021/10/24 00:03:17;;;;;;;21.90;14.20;;;;;;;7.73;98.19;102786.22;5075033;28;20115;-58
2021/10/24 00:05:42;;;;;;;26.88;14.43;;;;;;;7.66;98.00;102787.94;5075729;28;20078;-59
2021/10/24 00:08:07;;;;;;;22.90;13.98;;;;;;;7.58;97.99;102787.97;5075228;28;20093;-60
2021/10/24 00:10:33;;;;;;;22.83;14.55;;;;;;;7.53;98.51;102795.00;5075432;28;20456;-62
2021/10/24 00:12:59;;;;;;;21.88;14.25;;;;;;;7.50;98.37;102789.75;5075003;28;20036;-59
2021/10/24 00:15:24;;;;;;;23.85;13.75;;;;;;;7.47;98.45;102787.13;5075137;28;20028;-63
2021/10/24 00:17:50;;;;;;;20.08;13.15;;;;;;;7.46;98.35;102777.44;5075464;28;20029;-58
2021/10/24 00:20:15;;;;;;;23.63;14.40;;;;;;;7.46;98.36;102774.81;5075084;28;20037;-58
2021/10/24 00:22:41;;;;;;;21.60;13.50;;;;;;;7.43;98.37;102773.06;5075354;28;20024;-58
2021/10/24 00:25:07;;;;;;;19.13;12.65;;;;;;;7.44;98.44;102773.91;5075346;28;20029;-63
2021/10/24 00:27:33;;;;;;;21.58;12.88;;;;;;;7.42;98.39;102773.94;5075454;28;20103;-63
2021/10/24 00:29:58;;;;;;;19.23;12.13;;;;;;;7.41;98.55;102766.91;5074321;28;20116;-61
2021/10/24 00:32:23;;;;;;;20.95;12.85;;;;;;;7.37;98.64;102771.28;5074931;28;20048;-59
2021/10/24 00:34:49;;;;;;;18.77;13.27;;;;;;;7.35;98.69;102765.16;5074944;28;20465;-58
2021/10/24 00:37:14;;;;;;;21.70;13.70;;;;;;;7.34;99.09;102773.94;5075332;28;20055;-58
2021/10/24 00:39:39;;;;;;;20.75;12.88;;;;;;;7.33;99.68;102766.91;5074981;28;20388;-59
2021/10/24 00:42:05;;;;;;;21.85;14.20;;;;;;;7.35;99.72;102769.53;5074714;28;20078;-64
2021/10/24 00:44:32;;;;;;;25.05;15.25;;;;;;;7.42;100.00;102765.13;5074374;28;20085;-62
2021/10/24 00:46:59;;;;;;;21.45;13.50;;;;;;;7.46;100.00;102769.53;5074251;28;20024;-59
2021/10/24 00:49:26;;;;;;;21.85;13.27;;;;;;;7.44;99.96;102766.00;5074407;28;20115;-58
2021/10/24 00:51:53;;;;;;;22.65;14.23;;;;;;;7.46;100.00;102765.13;5073712;28;20384;-63
2021/10/24 00:54:20;;;;;;;20.80;14.50;;;;;;;7.44;100.00;102768.66;5074730;28;20094;-59
2021/10/24 00:56:49;;;;;;;22.67;14.93;;;;;;;7.44;100.00;102766.00;5074404;28;20104;-63
2021/10/24 00:59:14;;;;;;;22.00;14.63;;;;;;;7.47;100.00;102760.75;5074867;28;20025;-62
2021/10/24 01:01:39;;;;;;;23.45;15.02;;;;;;;7.49;100.00;102758.97;5073919;28;20388;-59
2021/10/24 01:04:05;;;;;;;23.50;14.88;;;;;;;7.49;100.00;102749.34;5074446;28;20123;-59
2021/10/24 01:06:32;;;;;;;25.60;14.70;;;;;;;7.49;100.00;102753.72;5074291;28;20078;-59
2021/10/24 01:08:58;;;;;;;22.92;14.63;;;;;;;7.48;100.00;102746.66;5074100;28;20024;-63
2021/10/24 01:11:24;;;;;;;23.27;14.95;;;;;;;7.48;100.00;102747.56;5074139;28;20032;-58
2021/10/24 01:13:50;;;;;;;25.05;15.73;;;;;;;7.47;100.00;102745.81;5074280;28;20029;-58
2021/10/24 01:16:17;;;;;;;23.80;16.38;;;;;;;7.51;100.00;102744.06;5073905;28;20162;-59
2021/10/24 01:18:44;;;;;;;22.90;15.55;;;;;;;7.54;100.00;102744.03;5074093;28;20027;-58
2021/10/24 01:21:10;;;;;;;26.58;16.17;;;;;;;7.54;100.00;102747.56;5074117;28;20473;-64
2021/10/24 01:23:36;;;;;;;25.02;15.35;;;;;;;7.53;100.00;102732.63;5073821;28;20028;-59
2021/10/24 01:26:02;;;;;;;23.95;15.75;;;;;;;7.52;100.00;102736.13;5073905;28;20111;-59
2021/10/24 01:28:27;;;;;;;23.67;15.02;;;;;;;7.46;100.00;102740.53;5074085;28;20035;-60
2021/10/24 01:30:54;;;;;;;22.15;14.45;;;;;;;7.36;100.00;102737.03;5073336;28;20028;-59
2021/10/24 01:33:20;;;;;;;29.45;17.10;;;;;;;7.25;100.00;102733.50;5073589;28;20024;-59
2021/10/24 01:36:00;;;;;;;28.42;16.92;;;;;;;7.20;100.00;102738.81;5073676;28;20025;-58
2021/10/24 01:38:27;;;;;;;23.63;14.60;;;;;;;7.15;100.00;102732.66;5073873;28;20028;-60
2021/10/24 01:40:54;;;;;;;24.75;15.38;;;;;;;7.09;100.00;102733.53;5073332;28;20385;-61
2021/10/24 01:43:21;;;;;;;25.35;15.73;;;;;;;7.08;100.00;102733.53;5073673;28;20480;-59
2021/10/24 01:45:47;;;;;;;24.75;15.95;;;;;;;6.99;100.00;102729.13;5073291;28;20063;-59
2021/10/24 01:48:13;;;;;;;26.77;15.52;;;;;;;6.94;100.00;102718.56;5073426;28;20056;-59
2021/10/24 01:50:39;;;;;;;23.85;14.88;;;;;;;6.87;100.00;102717.69;5073217;28;20426;-60
2021/10/24 01:53:05;;;;;;;24.67;15.98;;;;;;;6.78;99.83;102722.97;5073317;28;20115;-60
2021/10/24 01:55:34;;;;;;;23.67;15.45;;;;;;;6.70;99.99;102715.06;5073252;28;20103;-62
2021/10/24 01:58:00;;;;;;;22.77;15.98;;;;;;;6.65;100.00;102723.81;5073308;28;20025;-59
2021/10/24 02:00:25;;;;;;;25.25;15.32;;;;;;;6.59;100.00;102714.16;5072827;28;20043;-63
2021/10/24 02:02:51;;;;;;;24.60;16.50;;;;;;;6.56;100.00;102711.53;5072517;28;20056;-63
2021/10/24 02:05:18;;;;;;;24.48;15.45;;;;;;;6.55;100.00;102713.28;5055822;28;20085;-58
2021/10/24 02:07:43;;;;;;;25.80;15.93;;;;;;;6.54;100.00;102713.28;5072923;28;20040;-59
2021/10/24 02:10:12;;;;;;;25.17;16.10;;;;;;;6.54;100.00;102700.97;5073232;28;20020;-62
2021/10/24 02:12:37;;;;;;;26.85;16.55;;;;;;;6.53;100.00;102701.88;5071988;28;20032;-58
2021/10/24 02:15:06;;;;;;;24.23;15.57;;;;;;;6.53;100.00;102703.59;5073044;28;20090;-58
2021/10/24 02:17:31;;;;;;;28.65;17.38;;;;;;;6.51;100.00;102695.72;5072555;28;20028;-59
2021/10/24 02:19:57;;;;;;;31.08;17.27;;;;;;;6.49;100.00;102699.22;5072840;28;20388;-59
2021/10/24 02:22:22;;;;;;;27.30;17.00;;;;;;;6.45;100.00;102687.81;5072776;28;20080;-63
2021/10/24 02:24:48;;;;;;;28.42;16.45;;;;;;;6.41;100.00;102688.69;5072928;28;20025;-61
2021/10/24 02:27:14;;;;;;;23.25;15.50;;;;;;;6.37;100.00;102684.28;5072715;28;20060;-63
2021/10/24 02:29:39;;;;;;;27.65;16.75;;;;;;;6.31;100.00;102684.28;5072457;28;20032;-59
2021/10/24 02:32:05;;;;;;;23.90;15.75;;;;;;;6.23;100.00;102687.75;5072472;28;20079;-62
2021/10/24 02:34:30;;;;;;;25.52;15.57;;;;;;;6.16;100.00;102679.84;5072709;28;20039;-62
2021/10/24 02:36:56;;;;;;;25.52;15.90;;;;;;;6.12;100.00;102681.56;5072803;28;20023;-63
2021/10/24 02:39:22;;;;;;;28.35;15.73;;;;;;;6.06;100.00;102682.44;5072432;28;20805;-61
2021/10/24 02:41:47;;;;;;;25.58;15.45;;;;;;;6.01;100.00;102673.66;5072683;28;20461;-62
2021/10/24 02:44:13;;;;;;;22.98;15.82;;;;;;;5.99;100.00;102677.16;5072409;28;20536;-58
2021/10/24 02:46:39;;;;;;;29.88;16.60;;;;;;;5.96;100.00;102678.00;5072628;28;20032;-62
2021/10/24 02:49:04;;;;;;;28.73;17.35;;;;;;;5.94;100.00;102670.97;5072090;28;20024;-63
2021/10/24 02:51:30;;;;;;;27.15;16.63;;;;;;;5.93;100.00;102669.19;5054593;28;20434;-59
2021/10/24 02:53:55;;;;;;;25.30;15.57;;;;;;;5.90;100.00;102664.81;5072499;28;20025;-58
2021/10/24 02:56:21;;;;;;;31.55;17.65;;;;;;;5.84;100.00;102652.50;5072526;28;20111;-60
2021/10/24 02:58:46;;;;;;;29.65;16.83;;;;;;;5.81;100.00;102670.91;5072668;28;20024;-61
2021/10/24 03:01:11;;;;;;;25.65;16.58;;;;;;;5.79;100.00;102659.47;5072007;28;20081;-63
2021/10/24 03:03:37;;;;;;;27.20;16.52;;;;;;;5.76;100.00;102658.63;5072448;28;20032;-64
2021/10/24 03:06:02;;;;;;;24.90;16.33;;;;;;;5.71;100.00;102656.81;5071766;28;20020;-59
2021/10/24 03:08:28;;;;;;;24.85;16.20;;;;;;;5.68;100.00;102658.59;5072519;28;20032;-61
2021/10/24 03:10:53;;;;;;;27.35;16.20;;;;;;;5.64;100.00;102659.41;5072159;28;20381;-62
2021/10/24 03:13:19;;;;;;;23.65;15.55;;;;;;;5.58;100.00;102665.53;5073342;28;20380;-60
2021/10/24 03:15:45;;;;;;;28.73;17.38;;;;;;;5.53;100.00;102665.50;5076259;28;20027;-63
2021/10/24 03:18:10;;;;;;;26.85;17.48;;;;;;;5.49;100.00;102661.09;5076739;28;20095;-60
2021/10/24 03:20:36;;;;;;;28.80;16.88;;;;;;;5.45;100.00;102654.06;5075795;28;20044;-63
2021/10/24 03:23:01;;;;;;;27.25;17.98;;;;;;;5.44;100.00;102656.69;5076262;28;20024;-59
2021/10/24 03:25:26;;;;;;;27.35;16.58;;;;;;;5.40;100.00;102650.53;5076374;28;20017;-59
2021/10/24 03:27:51;;;;;;;27.48;18.10;;;;;;;5.38;100.00;102653.16;5076259;28;20074;-59
2021/10/24 03:30:17;;;;;;;27.98;18.17;;;;;;;5.39;100.00;102657.53;5076361;28;20029;-60
2021/10/24 03:32:43;;;;;;;27.55;16.30;;;;;;;5.36;100.00;102652.28;5075548;28;20531;-59
2021/10/24 03:35:08;;;;;;;30.67;17.77;;;;;;;5.36;100.00;102652.28;5076163;28;20038;-61
2021/10/24 03:37:34;;;;;;;26.25;16.67;;;;;;;5.34;100.00;102648.75;5076086;28;20024;-58
2021/10/24 03:39:59;;;;;;;28.45;18.50;;;;;;;5.29;100.00;102653.09;5076330;28;20028;-63
2021/10/24 03:42:24;;;;;;;28.52;17.88;;;;;;;5.24;100.00;102654.81;5075727;28;20103;-58
2021/10/24 03:44:50;;;;;;;38.15;21.17;;;;;;;5.22;100.00;102644.31;5075616;28;20116;-60
2021/10/24 03:47:15;;;;;;;35.50;21.60;;;;;;;5.24;100.00;102639.03;5075907;28;20074;-63
2021/10/24 03:49:41;;;;;;;37.95;21.65;;;;;;;5.25;100.00;102649.56;5075830;28;20390;-62
2021/10/24 03:52:07;;;;;;;30.70;20.27;;;;;;;5.23;100.00;102648.69;5075774;28;20032;-58
2021/10/24 03:54:33;;;;;;;37.90;22.67;;;;;;;5.27;100.00;102644.34;5075249;28;20032;-61
2021/10/24 03:56:58;;;;;;;41.05;23.45;;;;;;;5.30;100.00;102649.59;5075799;28;20067;-60
2021/10/24 03:59:24;;;;;;;37.15;23.83;;;;;;;5.29;100.00;102634.69;5075706;28;20098;-63
2021/10/24 04:01:49;;;;;;;36.08;22.55;;;;;;;5.28;100.00;102634.69;5075728;28;20027;-64
2021/10/24 04:04:14;;;;;;;34.28;21.48;;;;;;;5.24;100.00;102642.56;5075623;28;20068;-63
2021/10/24 04:06:40;;;;;;;38.63;21.92;;;;;;;5.21;100.00;102637.28;5074948;28;20031;-62
2021/10/24 04:09:05;;;;;;;32.47;20.42;;;;;;;5.17;100.00;102639.91;5075606;28;20021;-58
2021/10/24 04:11:30;;;;;;;35.95;22.15;;;;;;;5.13;100.00;102631.13;5075384;28;20426;-64
2021/10/24 04:13:56;;;;;;;39.25;21.88;;;;;;;5.08;100.00;102636.31;5075080;28;20037;-63
2021/10/24 04:16:21;;;;;;;36.75;21.65;;;;;;;5.05;100.00;102627.53;5075036;28;20021;-64
2021/10/24 04:18:46;;;;;;;33.90;21.02;;;;;;;5.03;100.00;102622.28;5075455;28;20028;-58
2021/10/24 04:21:12;;;;;;;39.45;22.05;;;;;;;5.00;100.00;102622.28;5075309;28;20020;-62
2021/10/24 04:23:37;;;;;;;40.22;22.52;;;;;;;4.98;100.00;102624.00;5075202;28;20908;-59
2021/10/24 04:26:02;;;;;;;36.75;21.80;;;;;;;4.97;100.00;102632.75;5074817;28;20025;-58
2021/10/24 04:28:28;;;;;;;38.05;21.95;;;;;;;4.99;100.00;102624.91;5074787;28;20400;-60
2021/10/24 04:30:53;;;;;;;34.67;21.67;;;;;;;5.00;100.00;102621.38;5075141;28;20113;-58
2021/10/24 04:33:18;;;;;;;33.17;20.70;;;;;;;5.01;100.00;102621.41;5075021;28;20119;-62
2021/10/24 04:35:44;;;;;;;40.08;21.02;;;;;;;5.01;100.00;102618.78;5074704;28;20029;-63
2021/10/24 04:38:09;;;;;;;34.88;21.30;;;;;;;5.00;100.00;102619.66;5074475;28;20032;-64
2021/10/24 04:40:34;;;;;;;33.70;20.30;;;;;;;5.02;100.00;102614.41;5074971;28;20052;-63
2021/10/24 04:43:00;;;;;;;34.30;20.80;;;;;;;5.02;100.00;102614.41;5075058;28;20017;-58
2021/10/24 04:45:25;;;;;;;31.67;20.92;;;;;;;4.99;100.00;102599.50;5074976;28;20020;-64
2021/10/24 04:47:51;;;;;;;36.15;20.98;;;;;;;5.00;100.00;102600.38;5074194;28;20480;-63
2021/10/24 04:50:17;;;;;;;33.22;20.50;;;;;;;5.00;100.00;102601.28;5074743;28;20119;-63
2021/10/24 04:52:42;;;;;;;36.60;21.10;;;;;;;5.01;100.00;102592.53;5074691;28;20119;-63
2021/10/24 04:55:07;;;;;;;34.92;21.05;;;;;;;5.01;100.00;102600.41;5074402;28;20033;-63
2021/10/24 04:57:34;;;;;;;35.92;20.30;;;;;;;5.00;100.00;102595.13;5074270;28;20449;-58
2021/10/24 04:59:59;;;;;;;32.85;19.77;;;;;;;5.03;100.00;102595.16;5074332;28;20107;-58
2021/10/24 05:02:25;;;;;;;33.20;20.08;;;;;;;5.03;100.00;102595.16;5074621;28;20131;-59
2021/10/24 05:04:50;;;;;;;35.30;20.40;;;;;;;5.03;100.00;102596.03;5074580;28;20078;-63
2021/10/24 05:07:15;;;;;;;32.08;19.77;;;;;;;5.04;100.00;102582.03;5074137;28;20020;-58
2021/10/24 05:09:41;;;;;;;32.88;19.52;;;;;;;5.08;100.00;102588.19;5073708;28;20028;-64
2021/10/24 05:12:06;;;;;;;34.22;19.92;;;;;;;5.06;100.00;102582.03;5074606;28;20097;-64
2021/10/24 05:14:32;;;;;;;33.30;20.23;;;;;;;5.08;100.00;102589.06;5074501;28;20384;-58
2021/10/24 05:16:57;;;;;;;31.80;18.80;;;;;;;5.07;100.00;102575.91;5074447;28;20460;-65
2021/10/24 05:19:22;;;;;;;32.55;19.63;;;;;;;5.07;100.00;102571.53;5074157;28;20033;-61
2021/10/24 05:21:48;;;;;;;32.65;19.58;;;;;;;5.02;100.00;102567.13;5073717;28;20562;-59
2021/10/24 05:24:13;;;;;;;31.70;19.08;;;;;;;5.01;100.00;102568.00;5073903;28;20035;-58
2021/10/24 05:26:39;;;;;;;32.60;19.45;;;;;;;5.03;100.00;102567.13;5074082;28;20408;-58
2021/10/24 05:29:04;;;;;;;30.95;19.98;;;;;;;5.03;100.00;102571.53;5074031;28;20032;-58
2021/10/24 05:31:29;;;;;;;28.70;19.17;;;;;;;4.99;100.00;102568.00;5073324;28;20040;-59
2021/10/24 05:33:55;;;;;;;33.78;18.52;;;;;;;4.98;100.00;102566.25;5073997;28;20415;-64
2021/10/24 05:36:20;;;;;;;28.65;17.52;;;;;;;4.95;100.00;102560.97;5073056;28;20071;-58
2021/10/24 05:38:45;;;;;;;28.92;18.25;;;;;;;4.93;100.00;102554.81;5073748;28;20029;-58
2021/10/24 05:41:11;;;;;;;31.67;18.60;;;;;;;4.91;100.00;102556.56;5073367;28;20096;-58
2021/10/24 05:43:36;;;;;;;29.67;17.85;;;;;;;4.89;100.00;102546.03;5073944;28;20468;-63
2021/10/24 05:46:01;;;;;;;29.00;18.50;;;;;;;4.92;100.00;102542.56;5073722;28;20518;-63
2021/10/24 05:48:27;;;;;;;30.65;18.25;;;;;;;4.90;100.00;102542.56;5073590;28;20032;-64
2021/10/24 05:50:52;;;;;;;29.50;17.58;;;;;;;4.89;100.00;102543.44;5073458;28;20021;-63
2021/10/24 05:53:17;;;;;;;29.88;17.35;;;;;;;4.89;100.00;102532.06;5073063;28;20101;-65
2021/10/24 05:55:45;;;;;;;27.27;17.17;;;;;;;4.87;100.00;102532.06;5073045;28;20069;-64
2021/10/24 05:58:10;;;;;;;28.27;16.98;;;;;;;4.86;100.00;102537.28;5072499;28;20074;-61
2021/10/24 06:00:36;;;;;;;27.52;17.63;;;;;;;4.85;100.00;102535.53;5074196;28;20104;-64
2021/10/24 06:03:05;;;;;;;26.42;16.27;;;;;;;4.83;100.00;102524.13;5073242;28;20022;-58
2021/10/24 06:05:31;;;;;;;27.23;16.63;;;;;;;4.81;100.00;102528.50;5072752;28;20037;-58
2021/10/24 06:07:56;;;;;;;29.27;17.42;;;;;;;4.80;100.00;102532.88;5072939;28;20059;-63
2021/10/24 06:10:27;;;;;;;28.05;17.33;;;;;;;4.81;100.00;102533.75;5073493;28;20106;-62
2021/10/24 06:12:53;;;;;;;30.27;18.02;;;;;;;4.82;100.00;102512.78;5072967;28;20028;-58
2021/10/24 06:15:20;;;;;;;28.52;17.23;;;;;;;4.82;100.00;102528.53;5073376;28;20361;-62
2021/10/24 06:17:46;;;;;;;31.00;17.67;;;;;;;4.82;100.00;102523.28;5073331;28;20024;-63
2021/10/24 06:20:13;;;;;;;27.52;17.23;;;;;;;4.79;100.00;102518.00;5079440;28;20025;-63
2021/10/24 06:22:39;;;;;;;31.83;18.02;;;;;;;4.81;100.00;102513.63;5072132;28;20035;-63
2021/10/24 06:25:06;;;;;;;25.05;16.67;;;;;;;4.82;100.00;102520.66;5071002;28;20028;-58
2021/10/24 06:27:31;;;;;;;28.05;16.98;;;;;;;4.82;100.00;102520.66;5069199;28;20037;-58
2021/10/24 06:29:57;;;;;;;26.65;17.38;;;;;;;4.83;100.00;102519.75;5072094;28;20028;-59
2021/10/24 06:32:22;;;;;;;28.98;17.30;;;;;;;4.87;100.00;102511.06;5064538;28;20110;-58
2021/10/24 06:34:48;;;;;;;27.73;17.85;;;;;;;4.87;100.00;102516.31;5069345;28;20060;-59
2021/10/24 06:37:17;;;;;;;28.65;16.77;;;;;;;4.86;100.00;102509.28;5073151;28;20028;-61
2021/10/24 06:39:43;;;;;;;26.25;16.65;;;;;;;4.86;100.00;102513.66;5072113;28;20052;-54
2021/10/24 06:42:08;;;;;;;29.17;16.08;;;;;;;4.87;100.00;102510.16;5072421;28;20369;-60
2021/10/24 06:44:34;;;;;;;28.67;16.58;;;;;;;4.91;100.00;102519.81;5072977;28;20032;-61
2021/10/24 06:46:59;;;;;;;25.95;15.65;;;;;;;4.92;100.00;102513.69;5072845;28;20024;-60
2021/10/24 06:49:24;;;;;;;28.88;16.52;;;;;;;4.94;100.00;102514.59;5072441;28;20036;-59
2021/10/24 06:51:50;;;;;;;24.02;14.98;;;;;;;4.95;100.00;102511.09;5072601;28;20028;-59
2021/10/24 06:54:15;;;;;;;24.08;15.25;;;;;;;4.95;100.00;102516.34;5072387;28;20024;-54
2021/10/24 06:56:40;;;;;;;25.30;15.40;;;;;;;4.96;100.00;102519.84;5072690;28;20028;-59
2021/10/24 06:59:05;;;;;;;24.23;16.58;;;;;;;4.98;100.00;102511.09;5070512;28;20447;-58
2021/10/24 07:01:31;;;;;;;24.30;15.85;;;;;;;5.00;100.00;102514.63;5069894;28;20061;-60
2021/10/24 07:03:56;;;;;;;24.90;15.85;;;;;;;5.02;100.00;102514.63;5071988;28;20100;-57
2021/10/24 07:06:23;;;;;;;22.92;15.10;;;;;;;5.04;100.00;102515.53;5071609;28;20028;-57
2021/10/24 07:08:49;;;;;;;23.63;15.38;;;;;;;5.05;100.00;102509.38;5068481;28;20056;-57
2021/10/24 07:11:14;;;;;;;25.15;16.38;;;;;;;5.08;100.00;102515.53;5074001;28;20089;-57
2021/10/24 07:13:39;;;;;;;25.08;16.08;;;;;;;5.09;100.00;102519.91;5072238;28;20082;-59
2021/10/24 07:16:05;;;;;;;24.63;15.52;;;;;;;5.13;100.00;102525.16;5071685;28;20041;-58
2021/10/24 07:18:30;;;;;;;23.48;15.25;;;;;;;5.16;100.00;102526.06;5072771;28;20037;-59
2021/10/24 07:20:56;;;;;;;24.92;14.90;;;;;;;5.19;100.00;102527.84;5072334;28;20056;-60
2021/10/24 07:23:21;;;;;;;22.92;14.63;;;;;;;5.19;100.00;102525.22;5072278;28;20391;-59
2021/10/24 07:25:46;;;;;;;23.13;14.50;;;;;;;5.21;100.00;102524.34;5072417;28;20429;-58
2021/10/24 07:28:11;;;;;;;27.23;15.18;;;;;;;5.25;100.00;102527.88;5072252;28;20033;-54
2021/10/24 07:30:37;;;;;;;24.77;15.20;;;;;;;5.28;100.00;102522.66;5076071;28;20548;-59
2021/10/24 07:33:03;;;;;;;23.50;15.55;;;;;;;5.27;100.00;102518.25;5072298;28;20110;-59
2021/10/24 07:35:28;;;;;;;24.17;15.45;;;;;;;5.31;100.00;102506.03;5072158;28;20033;-56
2021/10/24 07:37:54;;;;;;;24.38;14.55;;;;;;;5.35;100.00;102513.91;5054221;28;20064;-59
2021/10/24 07:40:21;;;;;;;22.80;15.48;;;;;;;5.37;100.00;102509.53;5072446;28;20017;-59
2021/10/24 07:42:46;;;;;;;22.02;14.70;;;;;;;5.42;100.00;102506.91;5072164;28;20024;-59
2021/10/24 07:45:11;;;;;;;22.00;14.45;;;;;;;5.45;100.00;102506.94;5072155;28;20024;-55
2021/10/24 07:47:38;;;;;;;23.05;14.95;;;;;;;5.46;100.00;102508.69;5072552;28;20115;-56
2021/10/24 07:50:07;;;;;;;21.30;14.52;;;;;;;5.47;100.00;102506.94;5072019;28;20031;-59
2021/10/24 07:52:32;;;;;;;22.13;14.48;;;;;;;5.49;100.00;102511.31;5071937;28;20039;-58
2021/10/24 07:54:58;;;;;;;22.20;14.32;;;;;;;5.54;100.00;102506.09;5072468;28;20037;-59
2021/10/24 07:57:23;;;;;;;26.02;14.68;;;;;;;5.55;100.00;102513.97;5071757;28;20040;-59
2021/10/24 07:59:49;;;;;;;27.60;15.10;;;;;;;5.60;100.00;102507.84;5073677;28;20025;-59
2021/10/24 08:02:18;;;;;;;22.23;15.00;;;;;;;5.63;100.00;102506.13;5075969;28;20036;-58
2021/10/24 08:04:45;;;;;;;21.95;14.77;;;;;;;5.64;100.00;102507.88;5075738;28;20096;-57
2021/10/24 08:07:10;;;;;;;23.02;15.02;;;;;;;5.70;100.00;102502.63;5075548;28;20539;-59
2021/10/24 08:09:36;;;;;;;21.70;14.73;;;;;;;5.76;100.00;102499.13;5075264;28;20108;-56
2021/10/24 08:12:01;;;;;;;23.35;14.65;;;;;;;5.82;100.00;102507.03;5074911;28;20043;-59
2021/10/24 08:14:27;;;;;;;21.38;14.35;;;;;;;5.90;100.00;102491.28;5074017;28;20391;-59
2021/10/24 08:16:53;;;;;;;23.02;15.02;;;;;;;5.99;100.00;102488.69;5074632;28;20025;-59
2021/10/24 08:19:18;;;;;;;20.45;14.52;;;;;;;6.15;100.00;102484.31;5075111;28;20036;-60
2021/10/24 08:21:45;;;;;;;22.40;13.80;;;;;;;6.32;100.00;102481.66;5076526;28;20379;-57
2021/10/24 08:24:10;;;;;;;22.50;14.18;;;;;;;7.04;100.00;102485.03;5090923;28;20524;-57
2021/10/24 08:26:36;;;;;;;19.85;11.85;;;;;;;8.43;98.83;102476.22;5074301;28;20147;-58
2021/10/24 08:29:02;;;;;;;13.93;8.98;;;;;;;10.18;90.72;102471.31;5075465;28;20024;-60
2021/10/24 08:31:28;;;;;;;12.13;8.23;;;;;;;11.74;79.55;102473.50;5075241;28;20089;-59
2021/10/24 08:33:55;;;;;;;11.77;7.65;;;;;;;12.92;68.11;102462.53;5075100;28;20048;-60
2021/10/24 08:36:22;;;;;;;12.20;7.93;;;;;;;13.67;66.05;102464.75;5074372;28;20028;-58
2021/10/24 08:38:48;;;;;;;9.70;6.75;;;;;;;14.40;59.85;102465.84;5075544;28;20039;-60
2021/10/24 08:41:15;;;;;;;9.63;6.85;;;;;;;15.07;59.27;102452.81;5075043;28;20109;-59
2021/10/24 08:43:40;;;;;;;10.70;7.22;;;;;;;15.32;56.69;102444.75;5084366;28;20040;-60
2021/10/24 08:46:06;;;;;;;12.98;7.18;;;;;;;15.55;55.96;102443.81;5074276;28;20047;-58
2021/10/24 08:48:34;;;;;;;9.68;6.80;;;;;;;15.78;55.72;102446.47;5073983;28;20032;-61
2021/10/24 08:51:00;;;;;;;9.82;6.53;;;;;;;16.23;53.91;102440.19;5074294;28;20024;-59
2021/10/24 08:53:28;;;;;;;9.57;6.28;;;;;;;16.04;53.64;102438.28;5074773;28;20032;-57
2021/10/24 08:55:55;;;;;;;10.18;6.30;;;;;;;16.39;52.98;102435.00;5074885;28;20029;-60
2021/10/24 08:58:21;;;;;;;10.77;6.30;;;;;;;16.52;51.54;102438.00;5074362;28;20033;-60
2021/10/24 09:00:50;;;;;;;9.88;6.25;;;;;;;16.51;50.17;102429.13;5079915;28;21337;-59
2021/10/24 09:03:16;;;;;;;11.20;8.10;;;;;;;16.60;50.70;102438.56;5073544;28;20025;-59
2021/10/24 09:05:44;;;;;;;7.68;5.35;;;;;;;16.83;48.89;102434.84;5071660;28;20469;-60
2021/10/24 09:08:18;;;;;;;9.13;5.65;;;;;;;16.99;48.67;102429.66;5073788;28;20029;-58
2021/10/24 09:10:49;;;;;;;9.43;5.82;;;;;;;16.72;48.15;102426.41;5073745;28;20035;-58
2021/10/24 09:13:21;;;;;;;8.73;5.32;;;;;;;16.46;47.91;102430.25;5073766;28;20116;-58
2021/10/24 09:15:46;;;;;;;;;;;;;;;16.22;46.77;102425.91;5074521;28;20540;-60
2021/10/24 09:18:12;;;;;;;6.17;4.30;;;;;;;16.20;47.03;102427.81;5074453;28;20004;-61
2021/10/24 09:20:38;;;;;;;8.90;5.35;;;;;;;16.25;47.16;102430.28;5073726;28;20056;-60
2021/10/24 09:23:10;;;;;;;8.10;4.75;;;;;;;16.30;47.36;102428.25;5074191;28;20021;-61
2021/10/24 09:25:58;;;;;;;8.30;4.93;;;;;;;16.67;46.43;102423.09;5073669;28;20432;-53
2021/10/24 09:28:26;;;;;;;7.82;4.75;;;;;;;16.83;46.93;102416.09;5006914;28;20125;-59
2021/10/24 09:31:04;;;;;;;7.50;4.50;;;;;;;16.69;45.31;102418.56;4992212;28;20042;-59
2021/10/24 09:33:43;;;;;;;8.15;4.88;;;;;;;16.58;45.60;102410.16;4986010;28;20056;-57
2021/10/24 09:36:09;;;;;;;8.00;4.70;;;;;;;16.92;45.58;102409.50;4992291;28;20040;-62
2021/10/24 09:38:39;;;;;;;8.10;4.82;;;;;;;17.30;45.10;102411.28;4991452;28;20046;-57
2021/10/24 09:41:05;;;;;;;7.97;4.75;;;;;;;17.67;44.14;102401.44;4987763;28;20037;-56
2021/10/24 09:43:32;;;;;;;7.22;4.30;;;;;;;17.49;42.94;102403.22;4991966;28;20042;-60
2021/10/24 09:45:57;;;;;;;7.72;4.30;;;;;;;17.34;44.32;102399.47;4991388;28;20487;-60
2021/10/24 09:48:25;;;;;;;7.53;4.70;;;;;;;17.72;42.43;102396.72;4990146;28;20045;-59
2021/10/24 09:50:55;;;;;;;7.97;4.65;;;;;;;17.71;43.60;102395.00;4988629;28;20328;-59
2021/10/24 09:53:28;;;;;;;7.53;4.50;;;;;;;17.88;42.39;102395.94;4989767;28;20129;-61
2021/10/24 09:55:53;;;;;;;8.43;4.65;;;;;;;17.87;42.92;102405.78;4990362;28;20027;-59
2021/10/24 09:58:20;;;;;;;10.30;4.53;;;;;;;17.41;42.42;102411.63;4991536;28;20061;-60
2021/10/24 10:00:45;;;;;;;8.48;4.90;;;;;;;17.98;42.99;102399.91;4990726;28;20498;-57
2021/10/24 10:03:11;;;;;;;6.75;4.30;;;;;;;18.23;41.65;102396.81;4990990;28;20034;-60
2021/10/24 10:05:38;;;;;;;8.15;4.60;;;;;;;18.25;40.77;102394.94;5027059;28;20033;-62
2021/10/24 10:08:08;;;;;;;7.93;4.80;;;;;;;18.10;40.79;102401.97;5053044;28;20020;-62
2021/10/24 10:10:38;;;;;;;8.25;4.80;;;;;;;18.37;42.44;102393.41;5053458;28;20027;-61
2021/10/24 10:13:10;;;;;;;7.27;4.40;;;;;;;18.66;41.59;102389.16;5048241;28;20033;-61
2021/10/24 10:15:48;;;;;;;8.95;4.75;;;;;;;19.26;39.62;102400.22;5052564;28;20108;-60
2021/10/24 10:18:13;;;;;;;7.28;4.68;;;;;;;19.23;39.74;102400.41;5051998;28;20043;-55
2021/10/24 10:20:53;;;;;;;8.32;4.80;;;;;;;19.59;38.70;102400.13;5051458;28;20037;-62
2021/10/24 10:23:22;;;;;;;8.20;4.90;;;;;;;19.47;40.01;102395.47;5050543;28;20499;-60
2021/10/24 10:25:48;;;;;;;8.48;4.30;;;;;;;19.54;38.71;102393.28;5048995;28;20024;-59
2021/10/24 10:28:34;;;;;;;8.85;5.10;;;;;;;19.73;39.19;102388.56;5057305;28;20036;-60
2021/10/24 10:31:12;;;;;;;9.80;5.10;;;;;;;20.11;39.06;102384.56;5067469;28;20426;-59
2021/10/24 10:33:38;;;;;;;9.25;4.88;;;;;;;20.07;39.34;102386.56;5032415;28;20076;-61
2021/10/24 10:36:06;;;;;;;8.93;4.93;;;;;;;20.08;38.36;102382.91;5046470;28;20037;-52
2021/10/24 10:38:33;;;;;;;6.60;4.28;;;;;;;20.22;38.97;102387.47;5072958;28;20035;-59
2021/10/24 10:40:59;;;;;;;6.97;4.60;;;;;;;19.98;38.78;102387.97;5072687;28;20024;-59
2021/10/24 10:43:24;;;;;;;8.10;4.45;;;;;;;19.97;38.20;102388.97;5075770;28;20062;-60
2021/10/24 10:45:52;;;;;;;8.70;4.63;;;;;;;20.17;38.37;102386.88;5072725;28;20027;-59
2021/10/24 10:48:30;;;;;;;7.82;4.63;;;;;;;20.18;37.59;102379.66;5076320;28;20028;-59
2021/10/24 10:51:01;;;;;;;7.60;4.78;;;;;;;20.21;38.17;102385.72;5075019;28;20045;-59
2021/10/24 10:53:32;;;;;;;7.88;4.82;;;;;;;20.57;37.92;102379.00;5072542;28;20044;-61
2021/10/24 10:56:00;;;;;;;7.50;4.55;;;;;;;19.92;39.28;102377.63;5069954;28;20534;-57
2021/10/24 10:58:37;;;;;;;11.02;5.47;;;;;;;20.30;38.75;102365.47;5082567;28;20031;-59
2021/10/24 11:01:05;;;;;;;10.18;4.72;;;;;;;20.18;37.28;102368.91;5072359;28;20071;-60
2021/10/24 11:04:08;;;;;;;8.40;4.70;;;;;;;20.08;38.08;102377.53;5070870;28;20553;-60
2021/10/24 11:06:33;;;;;;;7.50;5.13;;;;;;;20.17;38.89;102380.63;5066862;28;20036;-61
2021/10/24 11:09:00;;;;;;;7.90;4.85;;;;;;;20.18;38.35;102371.59;5062815;28;20031;-58
2021/10/24 11:11:40;;;;;;;8.52;5.00;;;;;;;20.15;38.61;102369.97;5069927;28;20063;-59